Time;durP1;ratioP1;P1;durP2;ratioP2;P2;SDS_P1;SDS_P2;PMS_P1;PMS_P2;Temp;Humidity;BMP_temperature;BMP_pressure;BME280_temperature;BME280_humidity;BME280_pressure;Samples;Min_cycle;Max_cycle;Signal;HPM_P1;HPM_P2
2022/01/31 00:00:13;;;;;;;6.32;4.60;;;5.40;99.90;;;;;;5060303;28;20041;-84
2022/01/31 00:02:41;;;;;;;9.50;3.73;;;5.40;99.90;;;;;;5040596;28;20044;-84
2022/01/31 00:05:07;;;;;;;7.50;2.70;;;5.40;99.90;;;;;;5042164;28;20040;-84
2022/01/31 00:07:33;;;;;;;6.38;3.47;;;5.40;99.90;;;;;;5042192;28;20056;-83
2022/01/31 00:09:58;;;;;;;5.72;2.60;;;5.40;99.90;;;;;;5059781;28;20094;-84
2022/01/31 00:12:29;;;;;;;9.32;5.40;;;5.40;99.90;;;;;;5059598;28;20441;-84
2022/01/31 00:15:01;;;;;;;13.20;5.18;;;5.40;99.90;;;;;;5060028;28;20041;-84
2022/01/31 00:17:26;;;;;;;11.88;4.15;;;5.40;99.90;;;;;;5059133;28;20072;-84
2022/01/31 00:19:52;;;;;;;4.70;3.28;;;5.40;99.90;;;;;;5041546;28;20396;-85
2022/01/31 00:22:18;;;;;;;8.10;3.40;;;5.40;99.90;;;;;;5041884;28;20080;-84
2022/01/31 00:24:43;;;;;;;3.30;2.97;;;5.40;99.90;;;;;;5046388;28;20048;-84
2022/01/31 00:27:09;;;;;;;17.60;5.63;;;5.40;99.90;;;;;;5045559;28;20509;-83
2022/01/31 00:29:35;;;;;;;3.67;3.40;;;5.40;99.90;;;;;;5063379;28;20530;-84
2022/01/31 00:32:01;;;;;;;6.32;3.25;;;5.40;99.90;;;;;;5063629;28;20131;-84
2022/01/31 00:34:26;;;;;;;7.75;3.80;;;5.40;99.90;;;;;;5044472;28;20057;-84
2022/01/31 00:36:54;;;;;;;5.07;3.70;;;5.40;99.90;;;;;;5063374;28;20064;-84
2022/01/31 00:39:19;;;;;;;4.78;3.35;;;5.30;99.90;;;;;;5045461;28;20055;-84
2022/01/31 00:41:45;;;;;;;5.20;3.90;;;5.30;99.90;;;;;;5044977;28;20048;-83
2022/01/31 00:44:20;;;;;;;6.03;3.75;;;5.30;99.90;;;;;;5045732;28;20406;-84
2022/01/31 00:46:52;;;;;;;5.90;2.25;;;5.40;99.90;;;;;;5045628;28;20063;-84
2022/01/31 00:49:35;;;;;;;6.77;4.57;;;5.30;99.90;;;;;;5044965;28;20028;-84
2022/01/31 00:52:02;;;;;;;4.38;2.67;;;5.40;99.90;;;;;;5062660;28;20119;-84
2022/01/31 00:54:28;;;;;;;9.43;3.40;;;5.30;99.90;;;;;;5045617;28;20534;-84
2022/01/31 00:56:55;;;;;;;2.97;2.78;;;5.40;99.90;;;;;;5045363;28;20036;-84
2022/01/31 00:59:20;;;;;;;9.60;3.85;;;5.30;99.90;;;;;;5062582;28;20048;-84
2022/01/31 01:01:47;;;;;;;6.30;3.97;;;5.30;99.90;;;;;;5062821;28;20056;-85
2022/01/31 01:04:14;;;;;;;8.93;4.07;;;5.30;99.90;;;;;;5062749;28;20036;-84
2022/01/31 01:06:40;;;;;;;7.20;4.05;;;5.30;99.90;;;;;;5044566;28;20086;-84
2022/01/31 01:09:05;;;;;;;14.60;4.72;;;5.20;99.90;;;;;;5062984;28;20045;-84
2022/01/31 01:11:31;;;;;;;2.13;1.95;;;5.20;99.90;;;;;;5062718;28;20052;-84
2022/01/31 01:13:57;;;;;;;4.75;3.58;;;5.20;99.90;;;;;;5044679;28;20048;-84
2022/01/31 01:16:23;;;;;;;2.08;1.98;;;5.20;99.90;;;;;;5063045;28;20040;-83
2022/01/31 01:18:49;;;;;;;6.30;3.03;;;5.20;99.90;;;;;;5043339;28;20043;-84
2022/01/31 01:21:15;;;;;;;7.15;3.40;;;5.20;99.90;;;;;;5063363;28;20097;-83
2022/01/31 01:23:40;;;;;;;2.25;2.05;;;5.20;99.90;;;;;;5045552;28;20479;-83
2022/01/31 01:26:06;;;;;;;2.08;1.98;;;5.20;99.90;;;;;;5061900;28;20193;-84
2022/01/31 01:28:31;;;;;;;4.35;2.53;;;5.10;99.90;;;;;;5044891;28;20044;-84
2022/01/31 01:30:57;;;;;;;1.65;1.55;;;5.10;99.90;;;;;;5044125;28;20063;-84
2022/01/31 01:33:24;;;;;;;5.93;1.97;;;5.10;99.90;;;;;;5043299;28;20195;-83
2022/01/31 01:35:53;;;;;;;2.30;1.37;;;5.10;99.90;;;;;;5062207;28;20033;-83
2022/01/31 01:38:19;;;;;;;1.10;1.00;;;5.10;99.90;;;;;;5062062;28;20056;-84
2022/01/31 01:40:47;;;;;;;1.90;1.00;;;5.00;99.90;;;;;;5062455;28;20111;-84
2022/01/31 01:43:14;;;;;;;1.65;0.90;;;5.00;99.90;;;;;;5062865;28;20047;-84
2022/01/31 01:45:41;;;;;;;1.17;0.98;;;5.00;99.90;;;;;;5043713;28;20040;-83
2022/01/31 01:48:08;;;;;;;2.22;1.50;;;5.00;99.90;;;;;;5061349;28;20138;-83
2022/01/31 01:50:35;;;;;;;1.43;1.13;;;5.00;99.90;;;;;;5062557;28;20116;-83
2022/01/31 01:53:02;;;;;;;9.77;1.05;;;5.00;99.90;;;;;;5043307;28;20057;-83
2022/01/31 01:55:28;;;;;;;1.85;1.70;;;5.00;99.90;;;;;;5044366;28;20045;-83
2022/01/31 01:57:54;;;;;;;5.00;3.00;;;5.00;99.90;;;;;;5043674;28;20047;-83
2022/01/31 02:00:25;;;;;;;1.40;1.33;;;5.00;99.90;;;;;;5061915;28;20044;-83
2022/01/31 02:02:51;;;;;;;2.80;1.42;;;5.10;99.90;;;;;;5060890;28;20032;-83
2022/01/31 02:05:17;;;;;;;1.70;1.60;;;5.10;99.90;;;;;;5061909;28;20040;-83
2022/01/31 02:07:43;;;;;;;7.90;1.50;;;5.10;99.90;;;;;;5063363;22;20083;-83
2022/01/31 02:10:09;;;;;;;11.90;1.87;;;5.10;99.90;;;;;;5041720;28;20894;-83
2022/01/31 02:12:45;;;;;;;2.85;1.92;;;5.10;99.90;;;;;;5024241;28;20041;-82
2022/01/31 02:15:12;;;;;;;1.50;1.33;;;5.00;99.90;;;;;;5024728;28;20045;-83
2022/01/31 02:17:38;;;;;;;3.20;1.92;;;5.10;99.90;;;;;;5040763;28;20390;-82
2022/01/31 02:20:06;;;;;;;3.60;1.65;;;5.10;99.90;;;;;;5027511;28;20044;-82
2022/01/31 02:22:32;;;;;;;0.80;0.80;;;5.10;99.90;;;;;;5061977;28;20123;-83
2022/01/31 02:24:58;;;;;;;5.38;1.50;;;5.10;99.90;;;;;;5061120;28;20619;-82
2022/01/31 02:27:28;;;;;;;6.68;2.33;;;5.10;99.90;;;;;;5061628;28;20051;-83
2022/01/31 02:29:54;;;;;;;2.33;1.73;;;5.10;99.90;;;;;;5039836;28;20059;-82
2022/01/31 02:32:22;;;;;;;4.32;1.80;;;5.20;99.90;;;;;;5006255;28;20048;-83
2022/01/31 02:34:48;;;;;;;4.33;2.43;;;5.20;99.90;;;;;;5041204;28;20045;-83
2022/01/31 02:37:13;;;;;;;1.17;1.17;;;5.20;99.90;;;;;;5042106;28;20052;-82
2022/01/31 02:39:39;;;;;;;3.25;1.88;;;5.20;99.90;;;;;;5041337;28;20049;-82
2022/01/31 02:42:05;;;;;;;3.00;1.77;;;5.30;99.90;;;;;;5034802;28;20079;-83
2022/01/31 02:44:30;;;;;;;11.27;2.22;;;5.30;99.90;;;;;;5061314;28;20041;-81
2022/01/31 02:46:57;;;;;;;5.50;2.10;;;5.40;99.90;;;;;;5042243;28;20055;-82
2022/01/31 02:49:26;;;;;;;1.55;1.25;;;5.40;99.90;;;;;;5042373;28;20525;-82
2022/01/31 02:51:55;;;;;;;7.90;3.20;;;5.50;99.90;;;;;;5043367;28;20077;-83
2022/01/31 02:54:21;;;;;;;6.50;2.10;;;5.60;99.90;;;;;;5050893;28;20101;-83
2022/01/31 02:56:47;;;;;;;5.38;2.47;;;5.70;99.90;;;;;;5040948;28;20128;-83
2022/01/31 02:59:13;;;;;;;22.33;3.28;;;5.70;99.90;;;;;;5023937;28;20418;-83
2022/01/31 03:01:38;;;;;;;4.65;2.25;;;5.70;99.90;;;;;;5040553;28;20040;-83
2022/01/31 03:04:05;;;;;;;1.80;1.70;;;5.80;99.90;;;;;;5040988;28;20095;-83
2022/01/31 03:06:31;;;;;;;2.40;1.38;;;5.80;99.90;;;;;;5040957;28;20043;-83
2022/01/31 03:08:56;;;;;;;3.08;2.00;;;5.80;99.90;;;;;;5022298;28;20140;-83
2022/01/31 03:11:22;;;;;;;13.95;2.95;;;5.80;99.90;;;;;;5041485;28;20585;-83
2022/01/31 03:13:47;;;;;;;1.33;0.90;;;5.90;99.90;;;;;;5040475;28;20115;-82
2022/01/31 03:16:13;;;;;;;7.47;2.55;;;5.90;99.90;;;;;;5041118;28;20032;-83
2022/01/31 03:18:39;;;;;;;4.82;0.80;;;5.90;99.90;;;;;;5045809;28;20025;-83
2022/01/31 03:21:04;;;;;;;10.43;2.38;;;5.90;99.90;;;;;;5060354;28;20494;-83
2022/01/31 03:23:30;;;;;;;8.20;2.05;;;5.90;99.90;;;;;;5061014;28;20059;-83
2022/01/31 03:25:56;;;;;;;11.10;1.95;;;6.00;99.90;;;;;;5060064;28;20438;-83
2022/01/31 03:28:21;;;;;;;1.67;1.02;;;5.90;99.90;;;;;;5042488;28;20043;-84
2022/01/31 03:30:47;;;;;;;14.25;1.58;;;5.90;99.90;;;;;;5049388;28;20160;-83
2022/01/31 03:33:13;;;;;;;0.98;0.98;;;6.00;99.90;;;;;;5040178;28;20472;-83
2022/01/31 03:35:39;;;;;;;3.55;2.15;;;6.00;99.90;;;;;;5040819;28;20116;-83
2022/01/31 03:38:04;;;;;;;8.98;2.00;;;6.00;99.90;;;;;;5022201;28;20490;-83
2022/01/31 03:40:30;;;;;;;4.28;1.58;;;5.90;99.90;;;;;;5040881;28;20049;-83
2022/01/31 03:42:55;;;;;;;14.32;2.60;;;5.90;99.90;;;;;;5040290;28;20073;-83
2022/01/31 03:45:21;;;;;;;1.65;0.88;;;5.80;99.90;;;;;;5039977;28;20242;-84
2022/01/31 03:47:47;;;;;;;3.28;0.90;;;5.70;99.90;;;;;;5053648;28;20560;-82
2022/01/31 03:50:14;;;;;;;17.65;1.77;;;5.70;99.90;;;;;;5060537;28;20098;-83
2022/01/31 03:52:42;;;;;;;14.75;1.73;;;5.70;99.90;;;;;;5042783;28;20084;-83
2022/01/31 03:55:09;;;;;;;6.93;2.75;;;5.70;99.90;;;;;;5060339;28;20048;-83
2022/01/31 03:57:35;;;;;;;7.38;1.70;;;5.80;99.90;;;;;;5062543;28;20044;-83
2022/01/31 04:00:04;;;;;;;16.95;2.13;;;5.80;99.90;;;;;;5064224;28;20108;-83
2022/01/31 04:02:29;;;;;;;5.00;1.48;;;5.80;99.90;;;;;;5063006;28;20041;-83
2022/01/31 04:04:55;;;;;;;10.80;2.30;;;5.80;99.90;;;;;;5063892;28;20052;-83
2022/01/31 04:07:20;;;;;;;10.90;2.33;;;5.80;99.90;;;;;;5064126;28;20567;-83
2022/01/31 04:09:46;;;;;;;2.78;1.58;;;5.80;99.90;;;;;;5064117;28;20406;-83
2022/01/31 04:12:11;;;;;;;1.13;0.65;;;5.80;99.90;;;;;;5029781;28;20080;-83
2022/01/31 04:14:38;;;;;;;0.60;0.60;;;5.80;99.90;;;;;;5064121;28;20045;-83
2022/01/31 04:17:07;;;;;;;0.52;0.52;;;5.80;99.90;;;;;;5061023;28;20421;-83
2022/01/31 04:19:33;;;;;;;0.88;0.70;;;5.80;99.90;;;;;;5063788;28;20103;-83
2022/01/31 04:21:58;;;;;;;3.72;2.05;;;5.70;99.90;;;;;;5045691;28;20076;-83
2022/01/31 04:24:31;;;;;;;16.45;1.55;;;5.70;99.90;;;;;;5064043;28;20087;-83
2022/01/31 04:26:59;;;;;;;2.70;1.83;;;5.60;99.90;;;;;;5063338;28;20804;-83
2022/01/31 04:29:28;;;;;;;5.78;1.45;;;5.70;99.90;;;;;;5063808;28;20045;-83
2022/01/31 04:31:54;;;;;;;0.75;0.75;;;5.70;99.90;;;;;;5005173;28;20049;-83
2022/01/31 04:34:20;;;;;;;1.13;1.02;;;5.70;99.90;;;;;;5023793;28;20049;-83
2022/01/31 04:36:46;;;;;;;1.00;1.00;;;5.60;99.90;;;;;;5005814;28;20049;-83
2022/01/31 04:39:16;;;;;;;5.85;1.58;;;5.60;99.90;;;;;;5024631;28;20041;-83
2022/01/31 04:41:42;;;;;;;3.40;0.93;;;5.50;99.90;;;;;;5006690;28;20057;-84
2022/01/31 04:44:09;;;;;;;4.05;0.95;;;5.50;99.90;;;;;;5005040;28;20045;-83
2022/01/31 04:46:35;;;;;;;1.95;1.25;;;5.40;99.90;;;;;;5061375;28;20052;-84
2022/01/31 04:49:00;;;;;;;3.92;1.40;;;5.40;99.90;;;;;;5044507;28;20044;-83
2022/01/31 04:51:26;;;;;;;11.95;2.22;;;5.40;99.90;;;;;;5063155;28;20044;-83
2022/01/31 04:53:52;;;;;;;7.43;1.23;;;5.30;99.90;;;;;;5063732;28;20036;-83
2022/01/31 04:56:18;;;;;;;6.55;1.55;;;5.30;99.90;;;;;;5063320;28;20047;-83
2022/01/31 04:58:44;;;;;;;9.45;1.42;;;5.40;99.90;;;;;;5063816;28;20093;-83
2022/01/31 05:01:09;;;;;;;3.08;1.38;;;5.40;99.90;;;;;;5045713;28;20598;-83
2022/01/31 05:03:36;;;;;;;1.17;0.93;;;5.40;99.90;;;;;;5061579;28;20033;-83
2022/01/31 05:06:02;;;;;;;3.10;0.73;;;5.40;99.90;;;;;;5045031;28;20036;-83
2022/01/31 05:08:29;;;;;;;1.92;0.95;;;5.40;99.90;;;;;;5062162;28;20053;-83
2022/01/31 05:10:55;;;;;;;21.83;1.73;;;5.40;99.90;;;;;;5044749;28;20068;-83
2022/01/31 05:13:21;;;;;;;6.97;2.00;;;5.40;99.90;;;;;;5063011;28;20518;-83
2022/01/31 05:15:47;;;;;;;3.22;1.27;;;5.40;99.90;;;;;;5042850;28;20052;-83
2022/01/31 05:18:13;;;;;;;1.08;0.70;;;5.40;99.90;;;;;;5062068;28;20032;-83
2022/01/31 05:20:39;;;;;;;8.60;1.13;;;5.40;99.90;;;;;;5062977;28;20044;-83
2022/01/31 05:23:06;;;;;;;7.68;1.55;;;5.40;99.90;;;;;;5044486;28;20102;-83
2022/01/31 05:25:33;;;;;;;12.27;2.38;;;5.40;99.90;;;;;;5062774;28;20055;-83
2022/01/31 05:27:58;;;;;;;0.57;0.57;;;5.40;99.90;;;;;;5044729;28;20048;-83
2022/01/31 05:30:24;;;;;;;2.85;1.30;;;5.40;99.90;;;;;;5054437;28;20048;-83
2022/01/31 05:32:50;;;;;;;22.38;0.88;;;5.40;99.90;;;;;;5041414;28;20494;-84
2022/01/31 05:35:15;;;;;;;13.45;2.10;;;5.40;99.90;;;;;;5042561;28;20033;-83
2022/01/31 05:37:42;;;;;;;1.20;1.17;;;5.50;99.90;;;;;;5025006;28;20076;-84
2022/01/31 05:40:08;;;;;;;23.67;1.55;;;5.50;99.90;;;;;;5042395;28;20051;-83
2022/01/31 05:42:34;;;;;;;5.83;1.17;;;5.50;99.90;;;;;;5024506;28;20041;-84
2022/01/31 05:45:00;;;;;;;1.23;1.02;;;5.50;99.90;;;;;;5043999;28;20054;-83
2022/01/31 05:47:25;;;;;;;10.98;1.20;;;5.50;99.90;;;;;;5061111;28;20410;-84
2022/01/31 05:49:51;;;;;;;4.13;1.55;;;5.50;99.90;;;;;;5039016;28;20049;-84
2022/01/31 05:52:16;;;;;;;1.67;0.57;;;5.50;99.90;;;;;;5022737;28;20088;-84
2022/01/31 05:54:42;;;;;;;1.27;0.82;;;5.50;99.90;;;;;;5022581;28;20046;-84
2022/01/31 05:57:09;;;;;;;5.22;1.52;;;5.50;99.90;;;;;;5004386;28;20045;-84
2022/01/31 05:59:36;;;;;;;0.47;0.47;;;5.50;99.90;;;;;;5022313;28;20049;-85
2022/01/31 06:02:02;;;;;;;8.07;2.30;;;5.50;99.90;;;;;;5021497;28;20467;-82
2022/01/31 06:04:29;;;;;;;4.18;2.08;;;5.50;99.90;;;;;;5042253;28;20037;-83
2022/01/31 06:06:55;;;;;;;1.15;0.82;;;5.50;99.90;;;;;;5041641;28;20047;-84
2022/01/31 06:09:20;;;;;;;12.43;2.42;;;5.50;99.90;;;;;;5059908;28;20048;-83
2022/01/31 06:11:49;;;;;;;6.47;2.28;;;5.50;99.90;;;;;;5061768;28;20045;-83
2022/01/31 06:14:15;;;;;;;1.90;1.45;;;5.50;99.90;;;;;;5061409;28;20044;-80
2022/01/31 06:16:41;;;;;;;0.85;0.85;;;5.50;99.90;;;;;;5057510;28;20095;-83
2022/01/31 06:19:07;;;;;;;0.98;0.98;;;5.50;99.90;;;;;;5054468;28;20044;-83
2022/01/31 06:21:32;;;;;;;6.05;0.82;;;5.50;99.90;;;;;;5048451;28;20080;-84
2022/01/31 06:23:58;;;;;;;6.68;2.25;;;5.50;99.90;;;;;;5034765;28;20035;-83
2022/01/31 06:26:23;;;;;;;2.38;1.23;;;5.50;99.90;;;;;;5022205;28;20483;-84
2022/01/31 06:28:49;;;;;;;0.43;0.43;;;5.50;99.90;;;;;;5022326;28;20045;-83
2022/01/31 06:31:15;;;;;;;0.88;0.88;;;5.40;99.90;;;;;;5044814;28;20036;-83
2022/01/31 06:33:41;;;;;;;2.03;0.82;;;5.40;99.90;;;;;;5039466;28;20110;-84
2022/01/31 06:36:07;;;;;;;8.57;1.98;;;5.40;99.90;;;;;;5037851;28;20495;-83
2022/01/31 06:38:35;;;;;;;5.80;1.95;;;5.40;99.90;;;;;;5037907;28;20052;-83
2022/01/31 06:41:01;;;;;;;9.70;1.63;;;5.40;99.90;;;;;;5039530;28;20048;-83
2022/01/31 06:43:26;;;;;;;5.78;2.05;;;5.50;99.90;;;;;;5026579;28;20049;-83
2022/01/31 06:45:52;;;;;;;10.50;2.63;;;5.50;99.90;;;;;;5014389;28;20505;-85
2022/01/31 06:48:18;;;;;;;3.03;2.50;;;5.50;99.90;;;;;;5042924;28;20033;-85
2022/01/31 06:50:43;;;;;;;19.35;1.98;;;5.50;99.90;;;;;;5040203;28;20212;-84
2022/01/31 06:53:11;;;;;;;9.05;1.92;;;5.60;99.90;;;;;;5037053;28;20044;-84
2022/01/31 06:55:37;;;;;;;1.58;1.33;;;5.60;99.90;;;;;;5047227;28;20089;-85
2022/01/31 06:58:02;;;;;;;4.38;1.50;;;5.60;99.90;;;;;;5035392;28;20131;-85
2022/01/31 07:00:28;;;;;;;2.38;1.13;;;5.60;99.90;;;;;;5036934;28;20919;-84
2022/01/31 07:03:00;;;;;;;15.18;2.83;;;5.60;99.90;;;;;;5039447;28;20037;-84
2022/01/31 07:05:26;;;;;;;6.90;2.38;;;5.60;99.90;;;;;;5039901;28;20441;-79
2022/01/31 07:07:51;;;;;;;12.23;2.42;;;5.70;99.90;;;;;;5022148;28;20049;-82
2022/01/31 07:10:17;;;;;;;2.42;1.55;;;5.70;99.90;;;;;;5040273;28;20506;-82
2022/01/31 07:12:48;;;;;;;5.28;2.33;;;5.70;99.90;;;;;;5022598;28;20187;-82
2022/01/31 07:15:14;;;;;;;5.57;1.67;;;5.70;99.90;;;;;;5023108;28;20051;-77
2022/01/31 07:17:44;;;;;;;5.43;1.63;;;5.70;99.90;;;;;;5022696;28;20791;-82
2022/01/31 07:20:13;;;;;;;1.58;1.40;;;5.70;99.90;;;;;;5040833;28;20045;-81
2022/01/31 07:22:40;;;;;;;16.63;2.20;;;5.80;99.90;;;;;;5040738;28;20403;-81
2022/01/31 07:25:21;;;;;;;19.00;2.35;;;5.80;99.90;;;;;;5039898;28;20044;-80
2022/01/31 07:27:47;;;;;;;9.35;2.50;;;5.70;99.90;;;;;;5021879;28;20057;-81
2022/01/31 07:30:13;;;;;;;8.93;2.40;;;5.80;99.90;;;;;;5030607;28;20033;-81
2022/01/31 07:32:41;;;;;;;5.90;1.85;;;5.80;99.90;;;;;;5039600;28;20041;-81
2022/01/31 07:35:10;;;;;;;17.73;4.38;;;5.80;99.90;;;;;;5040044;28;20037;-81
2022/01/31 07:37:35;;;;;;;8.57;3.13;;;5.80;99.90;;;;;;5039572;28;20037;-84
2022/01/31 07:40:03;;;;;;;14.50;2.58;;;5.80;99.90;;;;;;5016928;28;20072;-86
2022/01/31 07:42:28;;;;;;;1.35;1.13;;;5.80;99.90;;;;;;5040265;28;20119;-85
2022/01/31 07:44:54;;;;;;;11.88;1.65;;;5.90;99.90;;;;;;5038777;28;20044;-86
2022/01/31 07:47:20;;;;;;;9.95;0.60;;;5.90;99.90;;;;;;5039496;28;20437;-84
2022/01/31 07:49:46;;;;;;;1.48;1.33;;;5.80;99.90;;;;;;5021712;28;20502;-83
2022/01/31 07:52:11;;;;;;;3.92;1.52;;;5.80;99.90;;;;;;5039928;28;20068;-81
2022/01/31 07:54:39;;;;;;;1.38;1.27;;;5.80;99.90;;;;;;5038951;28;20037;-81
2022/01/31 07:57:04;;;;;;;8.93;2.25;;;5.80;99.90;;;;;;5037863;28;20698;-82
2022/01/31 07:59:30;;;;;;;2.80;2.40;;;5.80;99.90;;;;;;5039254;28;20102;-81
2022/01/31 08:01:55;;;;;;;15.18;3.38;;;5.80;99.90;;;;;;5020072;28;20045;-82
2022/01/31 08:04:21;;;;;;;7.22;2.30;;;5.80;99.90;;;;;;5038205;28;20668;-82
2022/01/31 08:06:46;;;;;;;2.10;1.17;;;5.80;99.90;;;;;;5038775;28;20556;-81
2022/01/31 08:09:12;;;;;;;3.50;1.17;;;5.80;99.90;;;;;;5039532;28;20144;-83
2022/01/31 08:11:38;;;;;;;13.68;1.70;;;5.80;99.90;;;;;;5022089;28;20124;-81
2022/01/31 08:14:09;;;;;;;5.07;1.50;;;5.90;99.90;;;;;;5039086;28;20033;-81
2022/01/31 08:16:36;;;;;;;30.52;2.38;;;5.90;99.90;;;;;;5018812;28;20080;-81
2022/01/31 08:19:04;;;;;;;8.90;1.10;;;5.90;99.90;;;;;;5019728;28;20092;-81
2022/01/31 08:21:29;;;;;;;0.32;0.32;;;5.90;99.90;;;;;;5020501;28;20084;-81
2022/01/31 08:23:56;;;;;;;1.35;0.93;;;6.00;99.90;;;;;;5001640;28;20084;-81
2022/01/31 08:26:22;;;;;;;3.15;2.17;;;6.00;99.90;;;;;;5038976;28;20534;-82
2022/01/31 08:28:55;;;;;;;6.75;1.98;;;6.00;99.90;;;;;;5039628;28;20129;-82
2022/01/31 08:31:36;;;;;;;5.13;0.65;;;6.00;99.90;;;;;;5039235;28;20045;-82
2022/01/31 08:36:42;;;;;;;3.10;1.30;;;6.10;99.90;;;;;;5019849;28;20088;-81
2022/01/31 08:39:12;;;;;;;2.67;0.85;;;6.00;99.90;;;;;;5023590;28;20037;-83
2022/01/31 08:41:42;;;;;;;1.90;1.40;;;6.10;99.90;;;;;;5038368;28;20041;-81
2022/01/31 08:44:08;;;;;;;3.08;0.95;;;6.10;99.90;;;;;;5021886;28;20041;-81
2022/01/31 08:46:35;;;;;;;7.50;1.25;;;6.10;99.90;;;;;;5024033;28;20052;-81
2022/01/31 08:49:01;;;;;;;1.73;0.70;;;6.10;99.90;;;;;;5025415;28;20052;-81
2022/01/31 08:51:27;;;;;;;0.47;0.47;;;6.00;99.90;;;;;;5025191;28;20040;-82
2022/01/31 08:53:53;;;;;;;0.68;0.68;;;6.00;99.90;;;;;;5024999;28;20076;-82
2022/01/31 08:56:20;;;;;;;2.10;1.65;;;6.10;99.90;;;;;;5025997;28;20049;-81
2022/01/31 08:58:48;;;;;;;3.75;1.88;;;6.10;99.90;;;;;;5041953;28;20564;-82
2022/01/31 09:01:20;;;;;;;0.85;0.85;;;6.10;99.90;;;;;;5023966;28;20539;-82
2022/01/31 09:06:23;;;;;;;2.03;0.73;;;6.10;99.90;;;;;;5043171;28;20057;-82
2022/01/31 09:08:49;;;;;;;5.10;1.13;;;6.10;99.90;;;;;;5042905;28;20060;-82
2022/01/31 09:11:16;;;;;;;4.03;0.88;;;6.10;99.90;;;;;;5024870;28;20053;-82
2022/01/31 09:13:41;;;;;;;0.70;0.70;;;6.10;99.90;;;;;;5043132;28;20039;-81
2022/01/31 09:16:07;;;;;;;1.65;0.80;;;6.10;99.90;;;;;;5023769;28;20474;-82
2022/01/31 09:18:33;;;;;;;1.20;1.00;;;6.10;99.90;;;;;;5042609;28;20463;-82
2022/01/31 09:21:00;;;;;;;7.07;2.13;;;6.10;99.90;;;;;;5024893;28;20068;-82
2022/01/31 09:23:26;;;;;;;1.48;0.70;;;6.10;99.90;;;;;;5042621;28;20037;-82
2022/01/31 09:25:53;;;;;;;0.40;0.25;;;6.10;99.90;;;;;;5023428;28;20049;-82
2022/01/31 09:28:18;;;;;;;1.77;1.67;;;6.10;99.90;;;;;;5042511;28;20471;-82
2022/01/31 09:30:45;;;;;;;1.20;1.02;;;6.10;99.90;;;;;;5025176;28;20057;-83
2022/01/31 09:33:12;;;;;;;1.63;1.30;;;6.20;99.90;;;;;;5041997;28;20086;-83
2022/01/31 09:35:39;;;;;;;18.80;1.50;;;6.20;99.90;;;;;;5042502;28;20037;-83
2022/01/31 09:38:05;;;;;;;1.80;1.08;;;6.30;99.90;;;;;;5042437;28;20784;-83
2022/01/31 09:40:32;;;;;;;3.00;1.63;;;6.30;99.90;;;;;;5042459;28;20747;-83
2022/01/31 09:43:28;;;;;;;13.05;0.98;;;6.30;99.90;;;;;;5017428;28;20083;-88
2022/01/31 09:46:04;;;;;;;17.13;1.85;;;6.30;99.90;;;;;;5014882;28;20137;-88
2022/01/31 09:48:40;;;;;;;6.35;1.73;;;6.30;99.90;;;;;;5043163;28;20041;-85
2022/01/31 09:51:12;;;;;;;4.57;1.50;;;6.30;99.90;;;;;;5041136;28;20055;-84
2022/01/31 09:53:45;;;;;;;1.60;0.98;;;6.30;99.90;;;;;;5042131;28;20045;-83
2022/01/31 09:56:14;;;;;;;7.45;1.55;;;6.30;99.90;;;;;;5023833;28;20056;-82
2022/01/31 09:58:41;;;;;;;1.40;1.08;;;6.30;99.90;;;;;;5038586;28;20044;-83
2022/01/31 10:01:14;;;;;;;10.32;2.22;;;6.30;99.90;;;;;;5023154;28;20839;-83
2022/01/31 10:03:59;;;;;;;1.92;0.70;;;6.30;99.90;;;;;;5021878;28;20395;-83
2022/01/31 10:06:28;;;;;;;1.55;0.95;;;6.30;99.90;;;;;;5004115;28;20059;-82
2022/01/31 10:09:28;;;;;;;2.10;1.13;;;6.30;99.90;;;;;;5026369;28;20053;-82
2022/01/31 10:16:24;;;;;;;11.48;2.88;;;6.30;99.90;;;;;;5012268;28;20064;-83
2022/01/31 10:17:39;;;;;;;4.90;1.17;;;6.30;99.90;;;;;;5040767;28;20075;-82
2022/01/31 10:20:21;;;;;;;1.85;0.77;;;6.30;99.90;;;;;;5022812;28;20073;-82
2022/01/31 10:22:47;;;;;;;0.65;0.63;;;6.30;99.90;;;;;;5022919;28;20056;-83
2022/01/31 10:25:18;;;;;;;8.95;1.33;;;6.30;99.90;;;;;;5040256;28;20041;-82
2022/01/31 10:27:51;;;;;;;1.45;0.98;;;6.30;99.90;;;;;;5023003;28;20041;-82
2022/01/31 10:30:26;;;;;;;8.00;1.65;;;6.40;99.90;;;;;;5022675;28;20036;-83
2022/01/31 10:32:54;;;;;;;0.55;0.55;;;6.40;99.90;;;;;;5022122;28;20888;-82
2022/01/31 10:35:27;;;;;;;2.88;1.08;;;6.40;99.90;;;;;;5029355;28;20045;-83
2022/01/31 10:38:05;;;;;;;1.60;0.98;;;6.40;99.90;;;;;;5021851;28;20041;-81
2022/01/31 10:43:41;;;;;;;0.75;0.75;;;6.40;99.90;;;;;;4961354;28;20592;-82
2022/01/31 10:46:31;;;;;;;0.73;0.73;;;6.40;99.90;;;;;;4977572;28;20054;-83
2022/01/31 10:54:29;;;;;;;0.73;0.40;;;6.30;99.90;;;;;;4975732;28;20054;-82
2022/01/31 10:56:56;;;;;;;2.60;0.73;;;6.30;99.90;;;;;;4945058;28;20663;-80
2022/01/31 10:59:35;;;;;;;1.75;1.10;;;6.30;99.90;;;;;;4971322;28;20038;-82
2022/01/31 11:02:05;;;;;;;1.00;1.00;;;6.30;99.90;;;;;;4976877;28;20045;-86
2022/01/31 11:04:37;;;;;;;1.55;1.17;;;6.40;99.90;;;;;;4976653;28;20042;-83
2022/01/31 11:07:08;;;;;;;14.60;2.20;;;6.40;99.90;;;;;;4946290;28;20046;-83
2022/01/31 11:09:34;;;;;;;11.80;2.72;;;6.40;99.90;;;;;;4963134;28;20055;-83
2022/01/31 11:12:01;;;;;;;1.77;0.98;;;6.40;99.90;;;;;;4979350;28;20042;-82
2022/01/31 11:14:27;;;;;;;4.30;2.17;;;6.40;99.90;;;;;;4972094;28;20053;-83
2022/01/31 11:16:56;;;;;;;2.88;2.03;;;6.40;99.90;;;;;;4976418;28;20042;-83
2022/01/31 11:19:31;;;;;;;11.02;2.45;;;6.50;99.90;;;;;;4969960;28;20045;-83
2022/01/31 11:22:02;;;;;;;12.13;3.45;;;6.50;99.90;;;;;;4980448;28;20046;-82
2022/01/31 11:24:32;;;;;;;1.95;1.48;;;6.60;99.90;;;;;;4970483;28;20140;-82
2022/01/31 11:27:11;;;;;;;8.73;1.53;;;6.60;99.90;;;;;;4979157;28;20140;-82
2022/01/31 11:29:43;;;;;;;3.88;2.92;;;6.70;99.90;;;;;;4969252;28;20508;-82
2022/01/31 11:32:09;;;;;;;18.88;2.50;;;6.70;99.90;;;;;;4978928;28;20482;-82
2022/01/31 11:34:39;;;;;;;23.00;2.75;;;6.70;99.90;;;;;;4980426;28;20085;-82
2022/01/31 11:37:16;;;;;;;7.45;2.58;;;6.70;99.90;;;;;;4976752;28;20073;-83
2022/01/31 11:39:44;;;;;;;6.18;2.53;;;6.80;99.90;;;;;;4962882;28;20073;-82
2022/01/31 11:42:10;;;;;;;32.80;3.22;;;6.80;99.90;;;;;;4961927;28;20549;-83
2022/01/31 11:44:45;;;;;;;10.05;2.45;;;6.80;99.90;;;;;;4961622;28;20046;-82
2022/01/31 11:47:11;;;;;;;7.40;2.15;;;6.80;99.90;;;;;;4953418;28;20173;-83
2022/01/31 11:49:46;;;;;;;5.03;2.08;;;6.80;99.90;;;;;;4979850;28;20137;-82
2022/01/31 11:52:12;;;;;;;6.22;2.40;;;6.80;99.90;;;;;;4977324;28;20038;-84
2022/01/31 11:54:49;;;;;;;4.47;2.33;;;6.80;99.90;;;;;;4980375;28;20044;-83
2022/01/31 11:57:28;;;;;;;2.30;1.85;;;6.90;99.90;;;;;;4979449;28;20793;-83
2022/01/31 11:59:57;;;;;;;2.80;1.92;;;7.00;99.90;;;;;;4975891;28;20061;-82
2022/01/31 12:02:24;;;;;;;1.67;1.58;;;7.00;99.90;;;;;;4975610;28;20038;-84
2022/01/31 12:04:52;;;;;;;9.48;1.30;;;7.00;99.90;;;;;;4976846;28;20069;-83
2022/01/31 12:07:47;;;;;;;14.55;1.63;;;7.00;99.90;;;;;;4980946;28;20516;-83
2022/01/31 12:10:26;;;;;;;3.20;1.15;;;7.10;99.90;;;;;;4948820;28;20105;-82
2022/01/31 12:18:45;;;;;;;7.13;0.77;;;7.10;99.90;;;;;;4961795;28;20049;-83
2022/01/31 12:24:08;;;;;;;3.88;1.65;;;7.10;99.90;;;;;;4972286;28;20057;-83
2022/01/31 12:26:37;;;;;;;1.63;0.95;;;7.10;99.90;;;;;;4981966;28;20052;-83
2022/01/31 12:29:11;;;;;;;6.47;1.88;;;7.10;99.90;;;;;;4974837;28;20171;-83
2022/01/31 12:31:41;;;;;;;15.32;1.83;;;7.10;99.90;;;;;;4971707;28;20038;-83
2022/01/31 12:34:21;;;;;;;5.18;1.65;;;7.20;99.90;;;;;;4964861;28;20533;-83
2022/01/31 12:36:56;;;;;;;3.30;1.75;;;7.20;99.90;;;;;;4970665;28;20133;-84
2022/01/31 12:39:42;;;;;;;6.45;2.05;;;7.20;99.90;;;;;;4977119;28;20065;-85
2022/01/31 12:43:09;;;;;;;27.85;4.15;;;7.20;99.90;;;;;;4982071;28;20088;-82
2022/01/31 12:45:37;;;;;;;3.67;2.00;;;7.20;99.90;;;;;;4981777;28;20043;-83
2022/01/31 12:48:13;;;;;;;3.50;1.55;;;7.20;99.90;;;;;;4981849;28;20046;-83
2022/01/31 12:50:50;;;;;;;9.02;2.63;;;7.20;99.90;;;;;;4976591;28;20105;-85
2022/01/31 12:53:38;;;;;;;4.28;1.83;;;7.20;99.90;;;;;;4974241;28;20058;-86
2022/01/31 12:56:13;;;;;;;19.48;2.15;;;7.20;99.90;;;;;;4981592;28;20570;-88
2022/01/31 12:58:46;;;;;;;8.02;2.47;;;7.20;99.90;;;;;;4980521;28;20053;-87
2022/01/31 13:01:19;;;;;;;10.02;2.85;;;7.20;99.90;;;;;;4982536;28;20436;-86
2022/01/31 13:03:47;;;;;;;14.20;3.53;;;7.20;99.90;;;;;;4980455;28;20046;-82
2022/01/31 13:06:46;;;;;;;14.98;2.05;;;7.20;99.90;;;;;;4981293;28;20039;-84
2022/01/31 13:09:15;;;;;;;6.25;1.80;;;7.20;99.90;;;;;;4966833;28;20137;-85
2022/01/31 13:11:47;;;;;;;8.68;2.30;;;7.20;99.90;;;;;;4977624;28;20050;-87
2022/01/31 13:14:19;;;;;;;2.72;1.10;;;7.20;99.90;;;;;;4982313;28;20050;-87
2022/01/31 13:16:57;;;;;;;2.25;2.00;;;7.20;99.90;;;;;;4965151;28;20078;-85
2022/01/31 13:19:24;;;;;;;14.82;1.50;;;7.30;99.90;;;;;;4974635;28;20069;-83
2022/01/31 13:21:52;;;;;;;6.32;1.88;;;7.20;99.90;;;;;;4980455;28;20038;-83
2022/01/31 13:24:19;;;;;;;4.93;2.78;;;7.20;99.90;;;;;;4980566;28;20038;-82
2022/01/31 13:26:57;;;;;;;10.02;3.33;;;7.20;99.90;;;;;;4981219;28;20046;-79